Terminal Aerodrome Forecast
Issued by NWS

Home | Current Version | Previous Version | Text Only | Print | Product List | Glossary On
Versions: 1 2 3 4 5 6 7 8 9 10 11 12 13 14 15
172
FTUS41 KPBZ 252320
TAFFKL
TAF
KFKL 252320Z 2600/2624 30008KT P6SM OVC006
     FM260900 28006KT P6SM BKN012
     FM261400 29006KT P6SM SCT025=

USA.gov is the U.S. government's official web portal to all federal, state and local government web resources and services.